createdAt,value
2019-03-28T00:00:11.372Z,0.54
2019-03-28T00:01:22.017Z,0.54
2019-03-28T00:02:32.689Z,0.54
2019-03-28T00:03:43.338Z,0.53
2019-03-28T00:04:54.003Z,0.51
2019-03-28T00:06:04.656Z,0.50
2019-03-28T00:07:15.309Z,0.48
2019-03-28T00:08:25.980Z,0.45
2019-03-28T00:09:36.632Z,0.43
2019-03-28T00:10:47.287Z,0.42
2019-03-28T00:11:57.938Z,0.40
2019-03-28T00:13:08.605Z,0.39
2019-03-28T00:14:19.296Z,0.37
2019-03-28T00:15:29.908Z,0.36
2019-03-28T00:16:40.568Z,0.35
2019-03-28T00:17:51.225Z,0.33
2019-03-28T00:19:01.880Z,0.32
2019-03-28T00:20:12.531Z,0.31
2019-03-28T00:21:23.202Z,0.31
2019-03-28T00:22:33.851Z,0.30
2019-03-28T00:23:44.515Z,0.29
2019-03-28T00:24:55.163Z,0.29
2019-03-28T00:26:05.815Z,0.28
2019-03-28T00:27:16.474Z,0.27
2019-03-28T00:28:27.134Z,0.24
2019-03-28T00:29:37.785Z,0.23
2019-03-28T00:30:48.449Z,0.23
2019-03-28T00:31:59.107Z,0.21
2019-03-28T00:33:09.763Z,0.19
2019-03-28T00:34:20.423Z,0.19
2019-03-28T00:35:31.595Z,0.18
2019-03-28T00:36:42.352Z,0.17
2019-03-28T00:37:52.891Z,0.16
2019-03-28T00:39:03.551Z,0.15
2019-03-28T00:40:14.229Z,0.15
2019-03-28T00:41:24.882Z,0.14
2019-03-28T00:42:35.537Z,0.12
2019-03-28T00:43:46.202Z,0.11
2019-03-28T00:44:56.847Z,0.10
2019-03-28T00:46:07.496Z,0.10
2019-03-28T00:47:18.149Z,0.10
2019-03-28T00:48:28.804Z,0.11
2019-03-28T00:49:39.457Z,0.13
2019-03-28T00:50:50.106Z,0.14
2019-03-28T00:52:00.764Z,0.17
2019-03-28T00:53:11.410Z,0.17
2019-03-28T00:54:22.068Z,0.19
2019-03-28T00:55:32.722Z,0.21
2019-03-28T00:56:47.106Z,0.24
2019-03-28T00:57:54.029Z,0.27
2019-03-28T00:59:04.686Z,0.31
2019-03-28T01:00:16.331Z,0.33
2019-03-28T01:01:26.981Z,0.35
2019-03-28T01:02:37.632Z,0.37
2019-03-28T01:03:48.282Z,0.40
2019-03-28T01:04:58.943Z,0.43
2019-03-28T01:06:09.598Z,0.45
2019-03-28T01:07:20.246Z,0.48
2019-03-28T01:08:30.890Z,0.51
2019-03-28T01:09:41.556Z,0.53
2019-03-28T01:10:52.206Z,0.54
2019-03-28T01:12:02.889Z,0.55
2019-03-28T01:13:13.544Z,0.57
2019-03-28T01:14:24.213Z,0.58
2019-03-28T01:15:35.356Z,0.58
2019-03-28T01:16:46.495Z,0.58
2019-03-28T01:17:57.157Z,0.58
2019-03-28T01:19:07.812Z,0.58
2019-03-28T01:20:19.470Z,0.58
2019-03-28T01:21:30.127Z,0.58
2019-03-28T01:22:41.284Z,0.56
2019-03-28T01:23:52.130Z,0.55
2019-03-28T01:25:02.794Z,0.51
2019-03-28T01:26:13.451Z,0.49
2019-03-28T01:27:25.213Z,0.48
2019-03-28T01:28:35.250Z,0.47
2019-03-28T01:29:45.894Z,0.46
2019-03-28T01:30:56.552Z,0.43
2019-03-28T01:32:07.222Z,0.41
2019-03-28T01:33:18.871Z,0.40
2019-03-28T01:34:29.519Z,0.39
2019-03-28T01:35:40.183Z,0.38
2019-03-28T01:36:50.843Z,0.37
2019-03-28T01:38:01.601Z,0.36
2019-03-28T01:39:12.256Z,0.36
2019-03-28T01:40:22.925Z,0.35
2019-03-28T01:41:34.568Z,0.35
2019-03-28T01:42:45.219Z,0.34
2019-03-28T01:43:55.880Z,0.33
2019-03-28T01:45:06.536Z,0.32
2019-03-28T01:46:17.198Z,0.31
2019-03-28T01:47:27.857Z,0.30
2019-03-28T01:48:38.506Z,0.30
2019-03-28T01:49:49.160Z,0.29
2019-03-28T01:51:00.804Z,0.29
2019-03-28T01:52:11.449Z,0.27
2019-03-28T01:53:22.123Z,0.25
2019-03-28T01:54:32.776Z,0.23
2019-03-28T01:55:43.427Z,0.23
2019-03-28T01:56:54.572Z,0.23
2019-03-28T01:58:05.333Z,0.22
2019-03-28T01:59:15.923Z,0.21
2019-03-28T02:00:26.575Z,0.21
2019-03-28T02:01:37.228Z,0.19
2019-03-28T02:02:47.871Z,0.19
2019-03-28T02:03:58.540Z,0.18
2019-03-28T02:05:09.182Z,0.18
2019-03-28T02:06:19.839Z,0.17
2019-03-28T02:07:30.481Z,0.17
2019-03-28T02:08:42.622Z,0.15
2019-03-28T02:09:53.262Z,0.14
2019-03-28T02:11:03.928Z,0.12
2019-03-28T02:12:14.571Z,0.11
2019-03-28T02:13:25.719Z,0.10
2019-03-28T02:14:36.358Z,0.11
2019-03-28T02:15:47.576Z,0.10
2019-03-28T02:16:58.231Z,0.10
2019-03-28T02:18:08.883Z,0.10
2019-03-28T02:19:19.600Z,0.09
2019-03-28T02:20:30.659Z,0.10
2019-03-28T02:21:41.315Z,0.10
2019-03-28T02:22:51.956Z,0.10
2019-03-28T02:24:02.599Z,0.11
2019-03-28T02:25:13.249Z,0.11
2019-03-28T02:26:23.906Z,0.13
2019-03-28T02:27:34.548Z,0.13
2019-03-28T02:28:45.697Z,0.14
2019-03-28T02:29:56.338Z,0.15
2019-03-28T02:31:06.986Z,0.15
2019-03-28T02:32:17.645Z,0.15
2019-03-28T02:33:28.282Z,0.14
2019-03-28T02:34:38.936Z,0.13
2019-03-28T02:35:49.580Z,0.16
2019-03-28T02:37:00.721Z,0.15
2019-03-28T02:38:11.864Z,0.16
2019-03-28T02:39:24.526Z,0.17
2019-03-28T02:40:34.663Z,0.17
2019-03-28T02:41:45.303Z,0.18
2019-03-28T02:42:55.954Z,0.18
2019-03-28T02:44:07.087Z,0.18
2019-03-28T02:45:19.229Z,0.19
2019-03-28T02:46:29.868Z,0.19
2019-03-28T02:47:40.525Z,0.20
2019-03-28T02:48:51.184Z,0.22
2019-03-28T02:50:01.834Z,0.23
2019-03-28T02:51:12.497Z,0.25
2019-03-28T02:52:23.154Z,0.27
2019-03-28T02:53:33.909Z,0.29
2019-03-28T02:54:44.445Z,0.30
2019-03-28T02:55:55.121Z,0.32
2019-03-28T02:57:06.236Z,0.34
2019-03-28T02:58:17.389Z,0.35
2019-03-28T02:59:28.516Z,0.36
2019-03-28T03:00:38.674Z,0.39
2019-03-28T03:01:49.324Z,0.39
2019-03-28T03:02:59.971Z,0.39
2019-03-28T03:04:10.625Z,0.41
2019-03-28T03:05:21.771Z,0.43
2019-03-28T03:06:32.418Z,0.43
2019-03-28T03:07:43.076Z,0.44
2019-03-28T03:08:53.715Z,0.45
2019-03-28T03:10:04.374Z,0.46
2019-03-28T03:11:15.580Z,0.45
2019-03-28T03:12:26.248Z,0.44
2019-03-28T03:13:37.884Z,0.43
2019-03-28T03:14:48.552Z,0.41
2019-03-28T03:15:59.692Z,0.40
2019-03-28T03:17:10.355Z,0.38
2019-03-28T03:18:21.820Z,0.37
2019-03-28T03:19:32.135Z,0.36
2019-03-28T03:20:43.573Z,0.35
2019-03-28T03:21:53.434Z,0.34
2019-03-28T03:23:05.088Z,0.33
2019-03-28T03:24:15.737Z,0.32
2019-03-28T03:25:26.888Z,0.29
2019-03-28T03:26:37.545Z,0.27
2019-03-28T03:27:57.532Z,0.24
2019-03-28T03:28:58.842Z,0.22
2019-03-28T03:30:09.979Z,0.20
2019-03-28T03:31:22.214Z,0.19
2019-03-28T03:32:32.286Z,0.17
2019-03-28T03:33:42.945Z,0.15
2019-03-28T03:34:53.599Z,0.14
2019-03-28T03:36:04.252Z,0.12
2019-03-28T03:37:14.914Z,0.10
2019-03-28T03:38:25.583Z,0.08
2019-03-28T03:39:36.229Z,0.07
2019-03-28T03:40:47.361Z,0.05
2019-03-28T03:41:58.013Z,0.05
2019-03-28T03:43:09.172Z,0.02
2019-03-28T03:44:19.820Z,0.01
2019-03-28T03:45:30.458Z,-0.01
2019-03-28T03:46:41.107Z,-0.01
2019-03-28T03:47:51.757Z,-0.02
2019-03-28T03:49:02.421Z,-0.03
2019-03-28T03:50:13.068Z,-0.04
2019-03-28T03:51:23.711Z,-0.04
2019-03-28T03:52:34.368Z,-0.05
2019-03-28T03:53:45.037Z,-0.04
2019-03-28T03:54:55.682Z,-0.05
2019-03-28T03:56:06.826Z,-0.05
2019-03-28T03:57:17.602Z,-0.05
2019-03-28T03:58:28.246Z,-0.05
2019-03-28T03:59:38.898Z,-0.04
2019-03-28T04:00:49.541Z,-0.04
2019-03-28T04:02:00.183Z,-0.04
2019-03-28T04:03:11.821Z,-0.04
2019-03-28T04:04:22.479Z,-0.04
2019-03-28T04:05:33.121Z,-0.04
2019-03-28T04:06:43.755Z,-0.03
2019-03-28T04:07:54.402Z,-0.02
2019-03-28T04:09:05.053Z,0.00
2019-03-28T04:10:15.701Z,0.01
2019-03-28T04:11:26.348Z,0.01
2019-03-28T04:12:36.993Z,0.02
2019-03-28T04:13:47.641Z,0.02
2019-03-28T04:14:58.293Z,0.03
2019-03-28T04:16:08.947Z,0.04
2019-03-28T04:17:19.600Z,0.05
2019-03-28T04:18:30.257Z,0.06
2019-03-28T04:19:40.919Z,0.07
2019-03-28T04:20:51.767Z,0.08
2019-03-28T04:22:02.221Z,0.10
2019-03-28T04:23:12.852Z,0.11
2019-03-28T04:24:23.497Z,0.13
2019-03-28T04:25:34.181Z,0.15
2019-03-28T04:26:44.798Z,0.17
2019-03-28T04:27:55.449Z,0.19
2019-03-28T04:29:06.097Z,0.21
2019-03-28T04:30:16.736Z,0.22
2019-03-28T04:31:27.378Z,0.24
2019-03-28T04:32:38.019Z,0.28
2019-03-28T04:33:48.651Z,0.31
2019-03-28T04:34:59.646Z,0.34
2019-03-28T04:36:09.939Z,0.37
2019-03-28T04:37:21.588Z,0.40
2019-03-28T04:38:32.251Z,0.43
2019-03-28T04:39:42.894Z,0.46
2019-03-28T04:40:53.534Z,0.50
2019-03-28T04:42:04.182Z,0.54
2019-03-28T04:43:14.832Z,0.57
2019-03-28T04:44:25.466Z,0.60
2019-03-28T04:45:36.125Z,0.64
2019-03-28T04:46:46.764Z,0.66
2019-03-28T04:47:57.415Z,0.70
2019-03-28T04:49:08.058Z,0.72
2019-03-28T04:50:19.161Z,0.74
2019-03-28T04:51:29.815Z,0.78
2019-03-28T04:52:40.465Z,0.82
2019-03-28T04:53:52.115Z,0.83
2019-03-28T04:55:02.774Z,0.86
2019-03-28T04:56:13.422Z,0.89
2019-03-28T04:57:24.067Z,0.93
2019-03-28T04:58:44.466Z,0.97
2019-03-28T04:59:45.363Z,0.99
2019-03-28T05:00:56.008Z,1.01
2019-03-28T05:02:07.162Z,1.05
2019-03-28T05:03:17.806Z,1.07
2019-03-28T05:04:28.455Z,1.10
2019-03-28T05:05:39.105Z,1.13
2019-03-28T05:06:50.321Z,1.15
2019-03-28T05:08:00.895Z,1.20
2019-03-28T05:09:11.551Z,1.22
2019-03-28T05:10:22.208Z,1.25
2019-03-28T05:11:33.336Z,1.27
2019-03-28T05:12:43.601Z,1.30
2019-03-28T05:13:54.256Z,1.32
2019-03-28T05:15:04.904Z,1.35
2019-03-28T05:16:15.569Z,1.37
2019-03-28T05:17:26.219Z,1.39
2019-03-28T05:18:36.891Z,1.41
2019-03-28T05:19:48.421Z,1.44
2019-03-28T05:20:58.705Z,1.45
2019-03-28T05:22:09.368Z,1.49
2019-03-28T05:23:20.013Z,1.51
2019-03-28T05:24:30.680Z,1.55
2019-03-28T05:25:41.342Z,1.58
2019-03-28T05:26:52.001Z,1.62
2019-03-28T05:28:02.654Z,1.65
2019-03-28T05:29:13.309Z,1.68
2019-03-28T05:30:23.976Z,1.72
2019-03-28T05:31:34.637Z,1.72
2019-03-28T05:32:45.291Z,1.75
2019-03-28T05:33:55.963Z,1.78
2019-03-28T05:35:06.616Z,1.83
2019-03-28T05:36:18.473Z,1.86
2019-03-28T05:37:28.428Z,1.89
2019-03-28T05:38:39.086Z,1.93
2019-03-28T05:39:49.754Z,1.97
2019-03-28T05:41:00.431Z,2.00
2019-03-28T05:42:11.099Z,2.04
2019-03-28T05:43:21.766Z,2.09
2019-03-28T05:44:32.434Z,2.12
2019-03-28T05:45:44.154Z,2.18
2019-03-28T05:46:53.783Z,2.21
2019-03-28T05:48:04.458Z,2.26
2019-03-28T05:49:15.144Z,2.30
2019-03-28T05:50:25.813Z,2.36
2019-03-28T05:51:36.492Z,2.41
2019-03-28T05:52:47.157Z,2.46
2019-03-28T05:53:57.828Z,2.51
2019-03-28T05:55:08.502Z,2.56
2019-03-28T05:56:19.180Z,2.62
2019-03-28T05:57:29.859Z,2.67
2019-03-28T05:58:40.539Z,2.74
2019-03-28T05:59:51.205Z,2.81
2019-03-28T06:01:01.888Z,2.89
2019-03-28T06:02:12.572Z,2.95
2019-03-28T06:03:23.244Z,3.01
2019-03-28T06:04:34.362Z,3.11
2019-03-28T06:05:44.596Z,3.18
2019-03-28T06:06:55.278Z,3.26
2019-03-28T06:08:05.955Z,3.33
2019-03-28T06:09:17.638Z,3.40
2019-03-28T06:10:29.322Z,3.48
2019-03-28T06:11:40.015Z,3.56
2019-03-28T06:12:50.697Z,3.64
2019-03-28T06:14:01.389Z,3.72
2019-03-28T06:15:12.090Z,3.81
2019-03-28T06:16:22.780Z,3.89
2019-03-28T06:17:33.476Z,3.96
2019-03-28T06:18:44.162Z,4.05
2019-03-28T06:19:54.853Z,4.13
2019-03-28T06:21:06.048Z,4.22
2019-03-28T06:22:16.758Z,4.31
2019-03-28T06:23:27.460Z,4.39
2019-03-28T06:24:38.180Z,4.49
2019-03-28T06:25:49.531Z,4.58
2019-03-28T06:26:59.586Z,4.66
2019-03-28T06:28:10.295Z,4.77
2019-03-28T06:29:24.130Z,4.86
2019-03-28T06:30:31.706Z,4.96
2019-03-28T06:31:54.743Z,5.05
2019-03-28T06:32:53.126Z,5.14
2019-03-28T06:34:03.844Z,5.24
2019-03-28T06:35:14.562Z,5.31
2019-03-28T06:36:26.742Z,5.39
2019-03-28T06:37:35.989Z,5.49
2019-03-28T06:38:47.197Z,5.57
2019-03-28T06:39:57.920Z,5.66
2019-03-28T06:41:08.647Z,5.74
2019-03-28T06:42:19.380Z,5.82
2019-03-28T06:43:30.601Z,5.89
2019-03-28T06:44:41.334Z,5.97
2019-03-28T06:45:52.063Z,6.04
2019-03-28T06:47:02.798Z,6.13
2019-03-28T06:48:14.586Z,6.20
2019-03-28T06:49:25.835Z,6.29
2019-03-28T06:50:36.533Z,6.37
2019-03-28T06:51:47.267Z,6.45
2019-03-28T06:52:58.012Z,6.53
2019-03-28T06:54:08.749Z,6.62
2019-03-28T06:55:19.498Z,6.72
2019-03-28T06:56:30.734Z,6.82
2019-03-28T06:57:41.941Z,6.90
2019-03-28T06:58:52.692Z,7.02
2019-03-28T07:00:03.924Z,7.10
2019-03-28T07:01:14.665Z,7.18
2019-03-28T07:02:25.423Z,7.26
2019-03-28T07:03:37.166Z,7.32
2019-03-28T07:04:47.929Z,7.40
2019-03-28T07:05:58.683Z,7.45
2019-03-28T07:07:09.627Z,7.50
2019-03-28T07:08:20.386Z,7.56
2019-03-28T07:09:31.137Z,7.62
2019-03-28T07:10:41.881Z,7.69
2019-03-28T07:11:52.639Z,7.76
2019-03-28T07:13:03.402Z,7.83
2019-03-28T07:14:14.158Z,7.90
2019-03-28T07:15:24.920Z,7.96
2019-03-28T07:16:35.682Z,8.05
2019-03-28T07:17:46.453Z,8.09
2019-03-28T07:18:57.843Z,8.17
2019-03-28T07:20:09.210Z,8.23
2019-03-28T07:21:19.399Z,8.30
2019-03-28T07:22:30.185Z,8.36
2019-03-28T07:23:40.941Z,8.45
2019-03-28T07:24:51.709Z,8.54
2019-03-28T07:26:02.580Z,8.63
2019-03-28T07:27:13.553Z,8.72
2019-03-28T07:28:24.343Z,8.81
2019-03-28T07:29:36.118Z,8.91
2019-03-28T07:30:48.852Z,9.01
2019-03-28T07:31:59.656Z,9.12
2019-03-28T07:33:10.954Z,9.22
2019-03-28T07:34:21.743Z,9.31
2019-03-28T07:35:32.524Z,9.39
2019-03-28T07:36:43.307Z,9.48
2019-03-28T07:37:54.101Z,9.58
2019-03-28T07:39:04.901Z,9.67
2019-03-28T07:40:15.696Z,9.77
2019-03-28T07:41:26.599Z,9.83
2019-03-28T07:42:37.387Z,9.90
2019-03-28T07:43:48.682Z,9.97
2019-03-28T07:44:59.481Z,10.01
2019-03-28T07:46:10.768Z,10.04
2019-03-28T07:47:21.568Z,10.08
2019-03-28T07:48:32.379Z,10.10
2019-03-28T07:49:43.183Z,10.14
2019-03-28T07:50:53.983Z,10.18
2019-03-28T07:52:05.319Z,10.23
2019-03-28T07:53:16.206Z,10.28
2019-03-28T07:54:27.025Z,10.33
2019-03-28T07:55:37.840Z,10.37
2019-03-28T07:56:49.485Z,10.41
2019-03-28T07:57:59.954Z,10.45
2019-03-28T07:59:10.794Z,10.47
2019-03-28T08:00:21.601Z,10.48
2019-03-28T08:01:32.913Z,10.49
2019-03-28T08:02:43.737Z,10.48
2019-03-28T08:03:54.559Z,10.46
2019-03-28T08:05:06.875Z,10.45
2019-03-28T08:06:17.689Z,10.42
2019-03-28T08:07:28.509Z,10.35
2019-03-28T08:08:39.322Z,10.24
2019-03-28T08:09:50.136Z,10.12
2019-03-28T08:11:00.954Z,10.02
2019-03-28T08:12:22.532Z,9.89
2019-03-28T08:13:23.069Z,9.80
2019-03-28T08:14:33.884Z,9.70
2019-03-28T08:15:45.181Z,9.62
2019-03-28T08:16:55.993Z,9.50
2019-03-28T08:18:06.806Z,9.41
2019-03-28T08:19:17.614Z,9.35
2019-03-28T08:20:28.417Z,9.29
2019-03-28T08:21:39.217Z,9.24
2019-03-28T08:22:50.022Z,9.19
2019-03-28T08:24:00.834Z,9.13
2019-03-28T08:25:12.278Z,9.06
2019-03-28T08:26:22.590Z,9.01
2019-03-28T08:27:33.381Z,9.00
2019-03-28T08:28:44.171Z,9.01
2019-03-28T08:29:57.739Z,9.01
2019-03-28T08:31:05.809Z,9.01
2019-03-28T08:32:16.617Z,9.02
2019-03-28T08:33:27.415Z,9.01
2019-03-28T08:34:38.217Z,9.00
2019-03-28T08:35:49.014Z,9.02
2019-03-28T08:36:59.821Z,9.15
2019-03-28T08:38:10.630Z,9.35
2019-03-28T08:39:21.921Z,9.60
2019-03-28T08:40:32.731Z,9.92
2019-03-28T08:41:43.535Z,10.29
2019-03-28T08:42:54.353Z,10.67
2019-03-28T08:44:07.326Z,11.10
2019-03-28T08:45:15.988Z,11.56
2019-03-28T08:46:26.803Z,12.12
2019-03-28T08:47:37.622Z,12.78
2019-03-28T08:48:48.444Z,13.64
2019-03-28T08:49:59.277Z,14.46
2019-03-28T08:51:10.638Z,15.25
2019-03-28T08:52:21.497Z,15.82
2019-03-28T08:53:32.357Z,16.26
2019-03-28T08:54:43.228Z,16.69
2019-03-28T08:55:54.081Z,17.18
2019-03-28T08:57:04.942Z,17.29
2019-03-28T08:58:16.320Z,17.12
2019-03-28T08:59:27.680Z,16.93
2019-03-28T09:00:51.779Z,16.81
2019-03-28T09:01:49.939Z,16.86
2019-03-28T09:03:00.826Z,17.02
2019-03-28T09:04:11.715Z,17.20
2019-03-28T09:05:22.618Z,17.31
2019-03-28T09:06:33.527Z,17.30
2019-03-28T09:07:44.432Z,17.30
2019-03-28T09:08:55.828Z,17.31
2019-03-28T09:10:06.739Z,17.39
2019-03-28T09:11:21.338Z,17.44
2019-03-28T09:12:29.074Z,17.51
2019-03-28T09:13:39.991Z,17.72
2019-03-28T09:14:50.921Z,18.03
2019-03-28T09:16:01.858Z,18.51
2019-03-28T09:17:12.785Z,19.34
2019-03-28T09:18:23.725Z,19.74
2019-03-28T09:19:34.671Z,20.12
2019-03-28T09:20:45.627Z,20.50
2019-03-28T09:21:56.602Z,20.94
2019-03-28T09:23:08.585Z,22.14
2019-03-28T09:24:19.555Z,23.50
2019-03-28T09:25:30.545Z,24.09
2019-03-28T09:26:41.531Z,24.05
2019-03-28T09:27:52.532Z,23.97
2019-03-28T09:29:03.530Z,23.54
2019-03-28T09:30:14.553Z,23.35
2019-03-28T09:31:25.571Z,23.17
2019-03-28T09:32:37.101Z,23.57
2019-03-28T09:33:48.144Z,24.16
2019-03-28T09:34:59.722Z,25.89
2019-03-28T09:36:10.798Z,26.20
2019-03-28T09:37:21.889Z,26.36
2019-03-28T09:38:32.986Z,25.96
2019-03-28T09:39:44.109Z,25.51
2019-03-28T09:40:55.238Z,25.88
2019-03-28T09:42:06.926Z,25.89
2019-03-28T09:43:18.000Z,25.94
2019-03-28T09:44:29.139Z,25.85
2019-03-28T09:45:40.291Z,25.51
2019-03-28T09:46:51.945Z,25.32
2019-03-28T09:48:03.107Z,25.23
2019-03-28T09:49:14.280Z,25.38
2019-03-28T09:50:25.462Z,25.75
2019-03-28T09:51:37.641Z,25.91
2019-03-28T09:52:48.826Z,26.12
2019-03-28T09:54:00.024Z,26.47
2019-03-28T09:55:11.274Z,26.09
2019-03-28T09:56:22.427Z,25.44
2019-03-28T09:57:33.622Z,24.85
2019-03-28T09:58:44.816Z,24.31
2019-03-28T09:59:56.005Z,23.85
2019-03-28T10:01:07.206Z,23.57
2019-03-28T10:02:18.904Z,23.50
2019-03-28T10:03:30.092Z,23.55
2019-03-28T10:04:41.276Z,23.63
2019-03-28T10:05:52.590Z,23.65
2019-03-28T10:07:03.854Z,23.70
2019-03-28T10:08:14.990Z,23.77
2019-03-28T10:09:26.179Z,23.91
2019-03-28T10:10:37.379Z,23.92
2019-03-28T10:11:48.586Z,23.82
2019-03-28T10:12:59.770Z,23.75
2019-03-28T10:14:10.963Z,23.75
2019-03-28T10:15:22.161Z,23.83
2019-03-28T10:16:33.364Z,23.94
2019-03-28T10:17:44.555Z,24.15
2019-03-28T10:18:55.767Z,24.32
2019-03-28T10:20:06.965Z,24.57
2019-03-28T10:21:18.180Z,25.03
2019-03-28T10:22:29.385Z,25.78
2019-03-28T10:23:40.598Z,26.56
2019-03-28T10:24:52.828Z,27.80
2019-03-28T10:26:04.072Z,28.33
2019-03-28T10:27:15.323Z,29.20
2019-03-28T10:28:27.086Z,29.77
2019-03-28T10:29:38.366Z,29.78
2019-03-28T10:30:49.651Z,29.75
2019-03-28T10:32:00.936Z,29.59
2019-03-28T10:33:12.239Z,29.31
2019-03-28T10:34:23.543Z,29.00
2019-03-28T10:35:34.850Z,28.83
2019-03-28T10:36:46.154Z,28.60
2019-03-28T10:37:57.470Z,28.29
2019-03-28T10:39:08.780Z,27.96
2019-03-28T10:40:20.589Z,27.54
2019-03-28T10:41:31.898Z,27.08
2019-03-28T10:42:43.213Z,26.52
2019-03-28T10:43:54.511Z,26.03
2019-03-28T10:45:05.802Z,25.58
2019-03-28T10:46:17.602Z,25.16
2019-03-28T10:47:28.884Z,24.81
2019-03-28T10:48:40.172Z,24.60
2019-03-28T10:49:51.449Z,24.50
2019-03-28T10:51:02.737Z,24.48
2019-03-28T10:52:14.021Z,24.70
2019-03-28T10:53:25.300Z,24.96
2019-03-28T10:54:36.576Z,25.11
2019-03-28T10:55:47.852Z,25.21
2019-03-28T10:57:12.518Z,25.29
2019-03-28T10:58:18.693Z,25.43
2019-03-28T10:59:24.014Z,25.69
2019-03-28T11:00:33.428Z,26.12
2019-03-28T11:01:50.103Z,26.50
2019-03-28T11:02:56.037Z,26.67
2019-03-28T11:04:07.279Z,27.15
2019-03-28T11:05:18.569Z,27.85
2019-03-28T11:06:30.347Z,29.05
2019-03-28T11:07:41.664Z,30.93
2019-03-28T11:08:52.982Z,33.52
2019-03-28T11:10:05.347Z,36.05
2019-03-28T11:11:16.707Z,38.09
2019-03-28T11:12:28.113Z,39.58
2019-03-28T11:13:39.530Z,40.73
2019-03-28T11:14:50.973Z,41.63
2019-03-28T11:16:02.449Z,42.40
2019-03-28T11:17:13.940Z,43.11
2019-03-28T11:18:25.957Z,43.62
2019-03-28T11:19:37.493Z,44.30
2019-03-28T11:20:49.051Z,44.72
2019-03-28T11:22:00.632Z,44.89
2019-03-28T11:23:12.237Z,45.44
2019-03-28T11:24:23.863Z,46.07
2019-03-28T11:25:35.499Z,46.62
2019-03-28T11:26:48.656Z,47.06
2019-03-28T11:28:00.309Z,47.09
2019-03-28T11:29:11.988Z,46.82
2019-03-28T11:30:23.684Z,46.37
2019-03-28T11:31:45.675Z,45.92
2019-03-28T11:32:47.377Z,45.50
2019-03-28T11:33:59.114Z,45.06
2019-03-28T11:35:11.353Z,44.58
2019-03-28T11:36:23.123Z,44.01
2019-03-28T11:37:34.903Z,43.56
2019-03-28T11:38:46.694Z,43.26
2019-03-28T11:39:58.591Z,43.29
2019-03-28T11:41:11.877Z,43.46
2019-03-28T11:42:23.698Z,43.58
2019-03-28T11:43:35.505Z,43.58
2019-03-28T11:44:47.315Z,43.47
2019-03-28T11:45:59.136Z,43.32
2019-03-28T11:47:10.969Z,43.37
2019-03-28T11:48:22.804Z,43.34
2019-03-28T11:49:34.651Z,43.09
2019-03-28T11:50:46.590Z,43.04
2019-03-28T11:51:58.437Z,43.12
2019-03-28T11:53:10.283Z,43.15
2019-03-28T11:54:22.133Z,43.21
2019-03-28T11:55:33.984Z,41.77
2019-03-28T11:56:46.315Z,41.85
2019-03-28T11:57:58.161Z,42.39
2019-03-28T11:59:10.010Z,42.62
2019-03-28T12:00:21.869Z,42.79
2019-03-28T12:01:34.218Z,42.97
2019-03-28T12:02:46.093Z,42.93
2019-03-28T12:03:58.447Z,41.96
2019-03-28T12:05:10.791Z,39.08
2019-03-28T12:06:23.127Z,38.28
2019-03-28T12:07:34.962Z,37.64
2019-03-28T12:08:46.772Z,38.18
2019-03-28T12:09:58.593Z,38.03
2019-03-28T12:11:10.418Z,38.54
2019-03-28T12:12:22.252Z,39.44
2019-03-28T12:13:44.621Z,38.29
2019-03-28T12:14:46.383Z,35.97
2019-03-28T12:15:58.153Z,33.88
2019-03-28T12:17:10.408Z,32.33
2019-03-28T12:18:24.908Z,31.10
2019-03-28T12:19:34.321Z,30.04
2019-03-28T12:20:45.981Z,28.89
2019-03-28T12:21:58.107Z,27.93
2019-03-28T12:23:09.724Z,27.27
2019-03-28T12:24:21.321Z,26.70
2019-03-28T12:25:32.904Z,26.25
2019-03-28T12:26:44.938Z,25.96
2019-03-28T12:27:56.591Z,25.86
2019-03-28T12:29:08.607Z,26.12
2019-03-28T12:30:20.643Z,26.10
2019-03-28T12:31:33.393Z,25.87
2019-03-28T12:32:43.615Z,25.58
2019-03-28T12:33:55.079Z,25.27
2019-03-28T12:35:06.530Z,24.98
2019-03-28T12:36:18.816Z,24.83
2019-03-28T12:37:30.028Z,25.01
2019-03-28T12:38:41.474Z,26.01
2019-03-28T12:39:53.409Z,26.88
2019-03-28T12:41:05.877Z,28.01
2019-03-28T12:42:17.883Z,29.29
2019-03-28T12:43:29.859Z,30.43
2019-03-28T12:44:41.377Z,30.82
2019-03-28T12:45:52.903Z,30.30
2019-03-28T12:47:04.425Z,29.46
2019-03-28T12:48:16.419Z,28.53
2019-03-28T12:49:27.913Z,27.50
2019-03-28T12:50:39.892Z,26.84
2019-03-28T12:51:51.403Z,26.37
2019-03-28T12:53:02.851Z,25.88
2019-03-28T12:54:14.310Z,25.38
2019-03-28T12:55:25.751Z,24.90
2019-03-28T12:56:37.183Z,24.41
2019-03-28T12:57:48.712Z,24.08
2019-03-28T12:59:00.019Z,23.91
2019-03-28T13:00:11.907Z,23.89
2019-03-28T13:01:23.289Z,24.38
2019-03-28T13:02:34.698Z,25.79
2019-03-28T13:03:46.673Z,27.49
2019-03-28T13:04:58.060Z,28.18
2019-03-28T13:06:09.511Z,28.04
2019-03-28T13:07:21.003Z,27.70
2019-03-28T13:08:32.348Z,27.26
2019-03-28T13:09:43.769Z,27.31
2019-03-28T13:10:55.184Z,27.60
2019-03-28T13:12:06.614Z,27.47
2019-03-28T13:13:18.040Z,27.16
2019-03-28T13:14:31.302Z,26.86
2019-03-28T13:15:40.879Z,26.59
2019-03-28T13:16:52.281Z,26.29
2019-03-28T13:18:03.680Z,26.01
2019-03-28T13:19:15.071Z,25.72
2019-03-28T13:20:26.451Z,25.52
2019-03-28T13:21:38.824Z,25.24
2019-03-28T13:22:51.991Z,24.89
2019-03-28T13:24:01.755Z,24.66
2019-03-28T13:25:13.122Z,24.46
2019-03-28T13:26:24.496Z,24.25
2019-03-28T13:27:36.512Z,24.07
2019-03-28T13:28:47.181Z,23.87
2019-03-28T13:29:58.513Z,23.66
2019-03-28T13:31:09.842Z,23.41
2019-03-28T13:32:21.149Z,23.16
2019-03-28T13:33:32.461Z,22.86
2019-03-28T13:34:43.756Z,22.61
2019-03-28T13:35:55.060Z,22.71
2019-03-28T13:37:06.378Z,23.71
2019-03-28T13:38:17.716Z,25.12
2019-03-28T13:39:29.563Z,26.31
2019-03-28T13:40:40.936Z,27.58
2019-03-28T13:41:52.842Z,28.81
2019-03-28T13:43:05.027Z,29.99
2019-03-28T13:44:16.209Z,30.86
2019-03-28T13:45:28.189Z,31.49
2019-03-28T13:46:40.162Z,32.00
2019-03-28T13:47:54.284Z,32.33
2019-03-28T13:49:04.162Z,32.45
2019-03-28T13:50:16.196Z,32.15
2019-03-28T13:51:28.217Z,31.48
2019-03-28T13:52:40.219Z,30.76
2019-03-28T13:53:52.348Z,30.12
2019-03-28T13:55:03.715Z,29.59
2019-03-28T13:56:15.757Z,29.34
2019-03-28T13:57:27.752Z,28.98
2019-03-28T13:58:39.466Z,28.40
2019-03-28T13:59:51.191Z,27.72
2019-03-28T14:01:03.130Z,27.07
2019-03-28T14:02:14.568Z,26.46
2019-03-28T14:03:26.584Z,25.87
2019-03-28T14:04:38.613Z,25.36
2019-03-28T14:05:50.609Z,24.90
2019-03-28T14:07:02.588Z,24.50
2019-03-28T14:08:14.558Z,24.12
2019-03-28T14:09:25.807Z,23.77
2019-03-28T14:10:37.662Z,23.42
2019-03-28T14:11:49.008Z,23.04
2019-03-28T14:13:00.836Z,22.68
2019-03-28T14:14:12.654Z,22.30
2019-03-28T14:15:24.465Z,21.90
2019-03-28T14:16:36.256Z,21.47
2019-03-28T14:17:47.545Z,21.05
2019-03-28T14:18:59.353Z,20.67
2019-03-28T14:20:11.108Z,20.30
2019-03-28T14:21:23.164Z,19.97
2019-03-28T14:22:34.903Z,19.68
2019-03-28T14:23:46.140Z,19.43
2019-03-28T14:24:57.376Z,19.24
2019-03-28T14:26:09.607Z,19.07
2019-03-28T14:27:20.809Z,18.87
2019-03-28T14:28:32.014Z,18.74
2019-03-28T14:29:43.720Z,18.62
2019-03-28T14:30:55.905Z,18.51
2019-03-28T14:32:07.094Z,18.42
2019-03-28T14:33:18.764Z,18.34
2019-03-28T14:34:30.601Z,18.28
2019-03-28T14:35:42.264Z,18.23
2019-03-28T14:36:53.428Z,18.21
2019-03-28T14:38:04.586Z,18.20
2019-03-28T14:39:15.732Z,18.21
2019-03-28T14:40:28.091Z,18.21
2019-03-28T14:41:38.520Z,18.20
2019-03-28T14:42:49.654Z,18.16
2019-03-28T14:44:00.784Z,18.13
2019-03-28T14:45:13.433Z,18.09
2019-03-28T14:46:25.064Z,18.07
2019-03-28T14:47:36.688Z,18.04
2019-03-28T14:48:48.335Z,18.01
2019-03-28T14:49:59.423Z,18.02
2019-03-28T14:51:10.713Z,18.02
2019-03-28T14:52:22.168Z,18.02
2019-03-28T14:53:33.297Z,18.01
2019-03-28T14:54:44.417Z,18.02
2019-03-28T14:55:55.536Z,18.01
2019-03-28T14:57:06.653Z,17.98
2019-03-28T14:58:17.762Z,17.95
2019-03-28T14:59:32.767Z,17.92
2019-03-28T15:00:39.989Z,17.91
2019-03-28T15:01:51.109Z,17.87
2019-03-28T15:03:02.204Z,17.86
2019-03-28T15:04:13.798Z,17.84
2019-03-28T15:05:24.929Z,17.80
2019-03-28T15:06:36.032Z,17.75
2019-03-28T15:07:47.620Z,17.73
2019-03-28T15:08:59.210Z,17.67
2019-03-28T15:10:10.798Z,17.62
2019-03-28T15:11:22.375Z,17.53
2019-03-28T15:12:33.477Z,17.50
2019-03-28T15:13:45.049Z,17.45
2019-03-28T15:14:56.133Z,17.44
2019-03-28T15:16:07.717Z,17.44
2019-03-28T15:17:19.299Z,17.44
2019-03-28T15:18:30.384Z,17.47
2019-03-28T15:19:41.965Z,17.51
2019-03-28T15:20:53.586Z,17.55
2019-03-28T15:22:05.168Z,17.59
2019-03-28T15:23:16.723Z,17.63
2019-03-28T15:24:27.792Z,17.67
2019-03-28T15:25:38.871Z,17.74
2019-03-28T15:26:50.525Z,17.78
2019-03-28T15:28:02.007Z,17.81
2019-03-28T15:29:13.586Z,17.81
2019-03-28T15:30:25.156Z,17.77